Flight Briefing for GRZ503

Departure Arrival
Ted Stevens Anchorage International Airport (PANC)
Click to view FAA NOTAMS
Fairbanks International Airport (PAFA)
Click to view FAA NOTAMS
Departure Time Arrival Time
N/A N/A
Aircraft Distance
B727-200F 227nm
Departure METAR Arrival METAR
PANC 181453Z 13008KT 10SM FEW060 BKN100 BKN210 04/01 A2937 RMK AO2 SLP948 T00440006 51013 PAFA 181453Z 03003KT 10SM BKN130 BKN200 M01/M04 A2935 RMK AO2 SLP944 T10061044 52004 PNO
Suggested Route
CAWIN LIBER3


View recent IFR Routes data
Notes



Charts and Procedures

Charts for PANC
No chart available
Charts for PAFA
No chart available

Windy.com Weather Map